Time;durP1;ratioP1;P1;durP2;ratioP2;P2;SDS_P1;SDS_P2;PMS_P1;PMS_P2;Temp;Humidity;BMP_temperature;BMP_pressure;BME280_temperature;BME280_humidity;BME280_pressure;Samples;Min_cycle;Max_cycle;Signal;HPM_P1;HPM_P2
2021/06/05 00:02:01;;;;;;;1.70;0.55;;;19.90;69.30;;;;;;4908614;29;20508;-72
2021/06/05 00:04:28;;;;;;;1.08;0.65;;;19.90;67.60;;;;;;4927515;29;20024;-73
2021/06/05 00:06:57;;;;;;;0.95;0.65;;;20.00;68.30;;;;;;4926235;29;20478;-73
2021/06/05 00:09:25;;;;;;;1.33;0.63;;;20.20;67.70;;;;;;4926285;29;20787;-73
2021/06/05 00:11:52;;;;;;;0.77;0.40;;;20.90;65.50;;;;;;4927532;29;20059;-74
2021/06/05 00:14:19;;;;;;;0.52;0.32;;;21.10;66.30;;;;;;4925270;29;20414;-73
2021/06/05 00:16:49;;;;;;;0.57;0.40;;;21.40;62.50;;;;;;4925412;29;20524;-73
2021/06/05 00:19:18;;;;;;;0.60;0.30;;;21.20;62.70;;;;;;4924368;29;20038;-73
2021/06/05 00:21:47;;;;;;;0.90;0.45;;;21.40;62.20;;;;;;4925894;29;20487;-73
2021/06/05 00:24:16;;;;;;;1.27;0.70;;;21.70;61.80;;;;;;4925409;29;20027;-73
2021/06/05 00:26:45;;;;;;;0.75;0.30;;;22.00;59.60;;;;;;4928815;29;20040;-73
2021/06/05 00:29:12;;;;;;;0.57;0.20;;;22.30;55.10;;;;;;4925721;29;20495;-74
2021/06/05 00:31:40;;;;;;;3.25;1.70;;;22.70;54.20;;;;;;4924511;29;20466;-73
2021/06/05 00:34:07;;;;;;;1.15;0.47;;;22.60;52.60;;;;;;4929466;29;20035;-74
2021/06/05 00:36:36;;;;;;;0.93;0.20;;;22.70;51.10;;;;;;4930396;29;20086;-73
2021/06/05 00:39:05;;;;;;;1.30;0.40;;;22.70;51.80;;;;;;4925356;29;20433;-73
2021/06/05 00:41:33;;;;;;;1.00;0.30;;;22.80;51.10;;;;;;4928809;29;20047;-74
2021/06/05 00:44:06;;;;;;;1.35;0.43;;;23.10;49.70;;;;;;4926912;29;20501;-73
2021/06/05 00:46:34;;;;;;;1.63;0.28;;;23.20;49.30;;;;;;4925013;29;20050;-71
2021/06/05 00:49:04;;;;;;;1.27;0.30;;;23.40;46.80;;;;;;4921632;29;20118;-71
2021/06/05 00:51:43;;;;;;;2.15;0.30;;;23.30;48.30;;;;;;4921800;29;20035;-73
2021/06/05 00:54:13;;;;;;;1.23;0.30;;;23.40;46.20;;;;;;4923617;29;20318;-74
2021/06/05 00:56:43;;;;;;;0.60;0.22;;;24.00;46.60;;;;;;4927400;29;20517;-74
2021/06/05 00:59:11;;;;;;;0.43;0.20;;;24.00;44.80;;;;;;4925756;29;20024;-72
2021/06/05 01:01:39;;;;;;;0.63;0.20;;;24.00;44.30;;;;;;4923820;29;20059;-73
2021/06/05 01:04:07;;;;;;;0.70;0.20;;;24.00;47.70;;;;;;4923788;29;20042;-73
2021/06/05 01:07:04;;;;;;;1.17;0.20;;;24.00;45.00;;;;;;4925017;29;20418;-73
2021/06/05 01:10:00;;;;;;;0.52;0.38;;;24.50;46.30;;;;;;4914441;29;20038;-73
2021/06/05 01:12:35;;;;;;;1.38;0.30;;;24.50;43.70;;;;;;4922185;29;20060;-74
2021/06/05 01:15:27;;;;;;;5.97;0.32;;;24.80;45.60;;;;;;4923360;29;20130;-73
2021/06/05 01:18:19;;;;;;;0.65;0.40;;;25.00;46.60;;;;;;4923655;29;20027;-73
2021/06/05 01:21:11;;;;;;;0.20;0.20;;;24.90;43.00;;;;;;4925191;28;20043;-75
2021/06/05 01:24:24;;;;;;;0.10;0.10;;;25.10;42.70;;;;;;4922462;29;20035;-75
2021/06/05 01:27:03;;;;;;;0.38;0.20;;;25.40;43.70;;;;;;4923580;29;20870;-73
2021/06/05 01:29:35;;;;;;;0.80;0.25;;;25.30;41.60;;;;;;4924035;29;20048;-74
2021/06/05 01:32:07;;;;;;;1.05;0.30;;;25.50;42.00;;;;;;4924095;29;20030;-75
2021/06/05 01:34:58;;;;;;;1.05;0.20;;;25.50;43.20;;;;;;4924472;29;20122;-75
2021/06/05 01:37:28;;;;;;;0.20;0.20;;;25.50;40.80;;;;;;4924852;29;20167;-74
2021/06/05 01:39:55;;;;;;;0.20;0.15;;;25.60;40.80;;;;;;4925437;29;20414;-74
2021/06/05 01:42:35;;;;;;;0.85;0.40;;;25.40;39.60;;;;;;4924625;29;20036;-74
2021/06/05 01:45:07;;;;;;;1.02;0.32;;;24.90;39.40;;;;;;4921072;29;20375;-75
2021/06/05 01:47:36;;;;;;;2.00;0.30;;;25.10;39.60;;;;;;4922939;29;20102;-73
2021/06/05 01:50:08;;;;;;;0.95;0.38;;;24.00;40.20;;;;;;4923839;29;20035;-72
2021/06/05 01:52:39;;;;;;;0.88;0.20;;;23.80;41.10;;;;;;4922876;29;20063;-74
2021/06/05 01:55:15;;;;;;;0.40;0.20;;;24.00;41.60;;;;;;4925033;29;20043;-73
2021/06/05 01:57:55;;;;;;;0.47;0.20;;;24.20;40.80;;;;;;4923607;29;20545;-73
2021/06/05 02:00:30;;;;;;;0.20;0.20;;;23.20;41.80;;;;;;4927406;29;20040;-71
2021/06/05 02:02:58;;;;;;;1.98;0.50;;;22.90;44.10;;;;;;4927446;29;20467;-72
2021/06/05 02:05:29;;;;;;;0.25;0.20;;;23.80;43.10;;;;;;4929206;29;20033;-70
2021/06/05 02:07:57;;;;;;;0.60;0.40;;;23.80;41.90;;;;;;4927368;29;20109;-72
2021/06/05 02:10:27;;;;;;;1.13;0.43;;;23.30;44.20;;;;;;4927411;29;20037;-74
2021/06/05 02:12:56;;;;;;;1.75;0.20;;;23.60;41.80;;;;;;4927336;29;20052;-73
2021/06/05 02:15:37;;;;;;;0.15;0.10;;;24.10;43.70;;;;;;4927947;29;20055;-71
2021/06/05 02:18:09;;;;;;;0.68;0.15;;;24.60;41.70;;;;;;4928331;29;20035;-73
2021/06/05 02:20:50;;;;;;;1.33;0.32;;;25.00;39.00;;;;;;4929772;29;20058;-73
2021/06/05 02:23:24;;;;;;;0.75;0.30;;;25.10;40.70;;;;;;4928643;29;20119;-70
2021/06/05 02:25:54;;;;;;;0.30;0.20;;;24.60;42.80;;;;;;4923234;29;20035;-72
2021/06/05 02:28:23;;;;;;;0.85;0.30;;;24.80;42.80;;;;;;4927812;29;20683;-75
2021/06/05 02:30:50;;;;;;;0.65;0.30;;;24.90;39.70;;;;;;4924977;29;20070;-75
2021/06/05 02:33:18;;;;;;;1.80;0.20;;;25.00;39.70;;;;;;4937064;29;20048;-73
2021/06/05 02:35:48;;;;;;;0.95;0.32;;;25.30;40.40;;;;;;4926283;29;20054;-72
2021/06/05 02:38:18;;;;;;;0.63;0.20;;;25.10;38.90;;;;;;4926389;29;20031;-74
2021/06/05 02:40:47;;;;;;;0.17;0.17;;;25.00;42.30;;;;;;4927935;29;20040;-72
2021/06/05 02:43:19;;;;;;;0.65;0.20;;;25.10;40.90;;;;;;4926502;29;20032;-73
2021/06/05 02:45:56;;;;;;;1.25;0.20;;;25.00;40.80;;;;;;4923878;29;20024;-73
2021/06/05 02:48:23;;;;;;;0.68;0.32;;;24.50;39.60;;;;;;4925675;29;20047;-74
2021/06/05 02:50:53;;;;;;;0.50;0.20;;;24.10;43.10;;;;;;4925375;28;20062;-73
2021/06/05 02:53:21;;;;;;;0.55;0.20;;;23.50;40.20;;;;;;4918051;29;20117;-72
2021/06/05 02:55:49;;;;;;;1.20;0.40;;;22.90;40.40;;;;;;4915640;29;20174;-72
2021/06/05 02:58:17;;;;;;;0.77;0.28;;;22.80;42.00;;;;;;4920086;29;20028;-71
2021/06/05 03:00:47;;;;;;;0.43;0.30;;;22.20;45.00;;;;;;4916826;29;20056;-73
2021/06/05 03:03:16;;;;;;;0.40;0.40;;;22.50;43.50;;;;;;4914099;29;20031;-75
2021/06/05 03:05:44;;;;;;;0.63;0.20;;;22.20;42.70;;;;;;4917399;29;20045;-73
2021/06/05 03:08:15;;;;;;;1.20;0.50;;;22.40;46.80;;;;;;4915308;29;20051;-73
2021/06/05 03:10:42;;;;;;;2.47;1.63;;;22.00;43.60;;;;;;4914621;28;20518;-73
2021/06/05 03:13:11;;;;;;;1.30;0.95;;;21.80;44.00;;;;;;4917195;29;20024;-71
2021/06/05 03:15:40;;;;;;;4.97;3.47;;;22.20;44.90;;;;;;4918840;29;20039;-73
2021/06/05 03:18:07;;;;;;;4.95;2.97;;;22.20;45.80;;;;;;4916366;29;20107;-73
2021/06/05 03:20:38;;;;;;;1.58;0.40;;;22.10;45.00;;;;;;4921165;29;20024;-73
2021/06/05 03:23:08;;;;;;;0.93;0.30;;;22.00;43.20;;;;;;4926106;29;20063;-71
2021/06/05 03:25:36;;;;;;;0.30;0.10;;;21.80;43.70;;;;;;4923806;29;20031;-75
2021/06/05 03:28:06;;;;;;;0.40;0.22;;;21.30;46.20;;;;;;4924665;29;20024;-75
2021/06/05 03:30:34;;;;;;;0.60;0.20;;;21.10;46.00;;;;;;4923437;29;20633;-74
2021/06/05 03:33:03;;;;;;;2.47;0.50;;;20.80;46.50;;;;;;4926412;29;20098;-71
2021/06/05 03:35:31;;;;;;;0.38;0.22;;;20.40;47.40;;;;;;4926707;29;20050;-73
2021/06/05 03:37:59;;;;;;;0.95;0.20;;;20.10;48.70;;;;;;4926349;29;20025;-74
2021/06/05 03:40:31;;;;;;;0.20;0.20;;;20.10;50.70;;;;;;4927379;29;20035;-71
2021/06/05 03:42:59;;;;;;;1.42;0.40;;;19.80;49.60;;;;;;4925311;29;20035;-73
2021/06/05 03:45:27;;;;;;;0.52;0.28;;;19.40;50.90;;;;;;4922591;29;20364;-74
2021/06/05 03:47:55;;;;;;;0.93;0.50;;;19.20;53.40;;;;;;4928045;29;20508;-73
2021/06/05 03:50:32;;;;;;;0.50;0.30;;;18.80;52.70;;;;;;4926885;29;20479;-75
2021/06/05 03:52:59;;;;;;;0.50;0.30;;;18.80;53.60;;;;;;4929026;29;20035;-75
2021/06/05 03:55:28;;;;;;;0.85;0.40;;;18.90;53.30;;;;;;4923857;29;20501;-74
2021/06/05 03:58:00;;;;;;;0.80;0.20;;;19.00;54.60;;;;;;4929629;29;20024;-72
2021/06/05 04:00:32;;;;;;;2.50;0.52;;;18.80;54.90;;;;;;4925917;29;20078;-72
2021/06/05 04:03:00;;;;;;;0.90;0.45;;;18.70;55.40;;;;;;4926739;29;20388;-74
2021/06/05 04:05:29;;;;;;;2.60;0.80;;;18.40;55.50;;;;;;4925778;29;20024;-74
2021/06/05 04:07:57;;;;;;;2.63;0.60;;;17.90;55.90;;;;;;4926794;29;20123;-73
2021/06/05 04:10:25;;;;;;;1.83;0.60;;;17.70;57.00;;;;;;4925432;29;20039;-73
2021/06/05 04:12:58;;;;;;;3.45;0.50;;;17.40;56.90;;;;;;4924396;29;20036;-73
2021/06/05 04:15:28;;;;;;;1.83;0.50;;;17.20;57.70;;;;;;4926283;29;20053;-72
2021/06/05 04:18:08;;;;;;;0.75;0.60;;;17.30;58.00;;;;;;4925285;29;20070;-72
2021/06/05 04:20:38;;;;;;;0.65;0.40;;;17.20;57.70;;;;;;4924638;29;20036;-73
2021/06/05 04:23:07;;;;;;;0.73;0.50;;;17.10;58.70;;;;;;4927794;28;20079;-72
2021/06/05 04:25:34;;;;;;;1.58;0.52;;;16.90;60.60;;;;;;4924290;29;20114;-72
2021/06/05 04:28:02;;;;;;;0.68;0.50;;;16.60;60.30;;;;;;4927150;29;20106;-72
2021/06/05 04:30:32;;;;;;;1.45;0.60;;;16.60;59.50;;;;;;4909657;29;20059;-73
2021/06/05 04:33:00;;;;;;;1.42;0.40;;;16.70;60.20;;;;;;4925797;29;20031;-72
2021/06/05 04:35:28;;;;;;;1.00;0.50;;;16.70;60.50;;;;;;4928539;29;20082;-73
2021/06/05 04:37:56;;;;;;;2.90;0.52;;;16.70;60.40;;;;;;4925560;29;20114;-72
2021/06/05 04:40:25;;;;;;;1.50;0.47;;;16.80;60.40;;;;;;4924706;29;20072;-73
2021/06/05 04:42:52;;;;;;;1.55;0.65;;;16.80;60.70;;;;;;4930206;29;20024;-72
2021/06/05 04:45:21;;;;;;;2.05;0.50;;;16.90;60.50;;;;;;4922991;29;20066;-74
2021/06/05 04:47:48;;;;;;;1.95;0.35;;;16.80;59.90;;;;;;4925727;29;20584;-70
2021/06/05 04:50:19;;;;;;;0.95;0.50;;;16.60;59.40;;;;;;4923155;29;20046;-69
2021/06/05 04:52:47;;;;;;;1.52;0.50;;;16.50;60.70;;;;;;4923354;29;20059;-72
2021/06/05 04:55:16;;;;;;;1.60;0.40;;;16.50;61.10;;;;;;4924835;29;20063;-73
2021/06/05 04:57:43;;;;;;;0.75;0.40;;;16.50;60.80;;;;;;4927858;29;20058;-74
2021/06/05 05:00:17;;;;;;;1.05;0.40;;;16.50;60.90;;;;;;4922054;29;20040;-73
2021/06/05 05:02:45;;;;;;;1.45;0.55;;;16.40;60.60;;;;;;4923093;29;20034;-72
2021/06/05 05:05:13;;;;;;;0.52;0.40;;;16.30;62.30;;;;;;4924131;29;20090;-74
2021/06/05 05:07:41;;;;;;;0.52;0.40;;;16.40;61.30;;;;;;4925498;29;20082;-71
2021/06/05 05:10:08;;;;;;;0.45;0.40;;;16.30;62.30;;;;;;4926941;29;20035;-72
2021/06/05 05:12:36;;;;;;;1.20;0.30;;;16.30;61.70;;;;;;4925570;29;20040;-72
2021/06/05 05:15:04;;;;;;;1.17;0.60;;;16.20;61.70;;;;;;4922876;29;20458;-72
2021/06/05 05:17:33;;;;;;;1.10;0.25;;;16.10;62.70;;;;;;4923663;29;20106;-74
2021/06/05 05:20:03;;;;;;;1.08;0.28;;;16.20;62.30;;;;;;4922919;29;20032;-72
2021/06/05 05:22:31;;;;;;;0.40;0.40;;;16.30;61.90;;;;;;4923978;29;20023;-73
2021/06/05 05:24:58;;;;;;;1.20;0.40;;;16.20;62.80;;;;;;4924894;29;20075;-72
2021/06/05 05:27:26;;;;;;;1.13;0.50;;;16.10;63.60;;;;;;4923243;29;20336;-72
2021/06/05 05:29:53;;;;;;;2.25;1.00;;;16.10;63.00;;;;;;4923627;29;20399;-73
2021/06/05 05:32:21;;;;;;;0.80;0.40;;;16.10;63.40;;;;;;4922811;29;20377;-72
2021/06/05 05:34:48;;;;;;;1.17;0.28;;;16.10;63.40;;;;;;4920955;29;20035;-72
2021/06/05 05:37:16;;;;;;;0.50;0.30;;;16.00;64.00;;;;;;4916270;29;20394;-71
2021/06/05 05:39:43;;;;;;;2.47;0.35;;;16.10;64.60;;;;;;4921610;29;20051;-71
2021/06/05 05:42:11;;;;;;;2.03;0.68;;;16.20;64.10;;;;;;4925792;29;20046;-70
2021/06/05 05:44:38;;;;;;;1.00;0.63;;;16.10;64.60;;;;;;4924080;29;20131;-72
2021/06/05 05:47:05;;;;;;;1.13;0.50;;;16.10;65.70;;;;;;4924259;29;20036;-74
2021/06/05 05:49:33;;;;;;;0.90;0.70;;;16.10;64.80;;;;;;4924203;29;20032;-73
2021/06/05 05:52:00;;;;;;;1.42;0.30;;;16.10;65.70;;;;;;4924633;29;20059;-72
2021/06/05 05:54:28;;;;;;;0.90;0.47;;;16.20;64.80;;;;;;4925799;29;20454;-73
2021/06/05 05:56:55;;;;;;;0.90;0.30;;;16.30;65.80;;;;;;4923095;29;20115;-72
2021/06/05 05:59:23;;;;;;;0.75;0.35;;;16.30;66.30;;;;;;4925245;29;20287;-73
2021/06/05 06:01:50;;;;;;;0.52;0.32;;;16.40;66.60;;;;;;4926353;29;20043;-72
2021/06/05 06:04:18;;;;;;;0.80;0.40;;;16.50;66.50;;;;;;4922486;29;20024;-72
2021/06/05 06:06:45;;;;;;;1.77;0.43;;;16.60;66.30;;;;;;4923417;29;20059;-72
2021/06/05 06:09:14;;;;;;;0.50;0.50;;;16.60;66.10;;;;;;4920717;29;20143;-73
2021/06/05 06:11:45;;;;;;;0.80;0.47;;;16.60;66.10;;;;;;4904821;29;20440;-72
2021/06/05 06:14:14;;;;;;;1.20;0.60;;;16.70;66.90;;;;;;4926797;29;20032;-72
2021/06/05 06:16:41;;;;;;;0.38;0.30;;;16.70;65.70;;;;;;4924176;29;20036;-73
2021/06/05 06:19:13;;;;;;;2.30;0.80;;;16.80;66.40;;;;;;4923478;29;20036;-72
2021/06/05 06:21:42;;;;;;;0.28;0.20;;;16.80;66.60;;;;;;4922031;29;20094;-73
2021/06/05 06:24:11;;;;;;;1.00;0.43;;;16.90;68.00;;;;;;4922977;29;20047;-73
2021/06/05 06:26:40;;;;;;;1.35;0.63;;;16.70;67.10;;;;;;4923856;29;20036;-72
2021/06/05 06:29:14;;;;;;;1.23;0.43;;;16.60;68.70;;;;;;4923311;29;20024;-71
2021/06/05 06:31:42;;;;;;;1.10;0.50;;;16.50;68.10;;;;;;4923047;29;20028;-71
2021/06/05 06:34:10;;;;;;;0.70;0.45;;;16.30;68.10;;;;;;4922410;29;20479;-70
2021/06/05 06:36:42;;;;;;;1.70;0.40;;;16.00;68.80;;;;;;4926022;29;20059;-71
2021/06/05 06:39:11;;;;;;;0.50;0.40;;;15.90;70.50;;;;;;4923505;29;20032;-71
2021/06/05 06:41:39;;;;;;;1.67;0.60;;;15.70;72.10;;;;;;4925723;29;20073;-72
2021/06/05 06:44:08;;;;;;;1.83;0.70;;;15.60;73.20;;;;;;4922073;29;20052;-71
2021/06/05 06:46:41;;;;;;;1.42;0.60;;;15.50;73.10;;;;;;4926322;29;20039;-72
2021/06/05 06:49:10;;;;;;;1.13;0.63;;;15.40;74.00;;;;;;4926451;29;20051;-75
2021/06/05 06:51:39;;;;;;;1.23;0.50;;;15.30;74.40;;;;;;4925524;29;20110;-73
2021/06/05 06:54:08;;;;;;;1.10;0.40;;;15.10;75.20;;;;;;4927373;29;20479;-72
2021/06/05 06:56:37;;;;;;;1.35;0.57;;;15.00;77.80;;;;;;4926389;29;20051;-71
2021/06/05 06:59:06;;;;;;;2.25;0.60;;;14.90;77.00;;;;;;4926192;29;20114;-72
2021/06/05 07:01:34;;;;;;;2.97;1.25;;;14.80;77.80;;;;;;4928598;29;20506;-71
2021/06/05 07:04:01;;;;;;;2.17;1.17;;;14.70;80.10;;;;;;4927628;29;20091;-71
2021/06/05 07:06:28;;;;;;;3.28;1.73;;;14.60;80.50;;;;;;4911640;29;20434;-72
2021/06/05 07:08:57;;;;;;;2.00;1.30;;;14.50;80.20;;;;;;4927501;29;20502;-71
2021/06/05 07:11:30;;;;;;;3.15;2.17;;;14.40;85.00;;;;;;4925772;29;20457;-73
2021/06/05 07:14:00;;;;;;;3.17;2.30;;;14.30;83.70;;;;;;4923967;29;20051;-73
2021/06/05 07:16:30;;;;;;;5.47;3.40;;;14.20;85.10;;;;;;4926746;29;20043;-75
2021/06/05 07:18:57;;;;;;;9.93;6.07;;;14.10;86.90;;;;;;4925791;29;20059;-72
2021/06/05 07:21:25;;;;;;;12.93;8.70;;;14.00;87.30;;;;;;4923938;29;20032;-73
2021/06/05 07:23:53;;;;;;;9.32;7.13;;;13.80;88.60;;;;;;4924552;29;20059;-73
2021/06/05 07:26:25;;;;;;;6.30;5.63;;;13.70;89.30;;;;;;4925266;29;20114;-75
2021/06/05 07:28:59;;;;;;;9.82;6.75;;;13.50;90.10;;;;;;4927401;29;20038;-74
2021/06/05 07:31:38;;;;;;;7.68;6.05;;;13.50;90.50;;;;;;4927531;29;20490;-72
2021/06/05 07:34:06;;;;;;;5.68;4.82;;;13.40;91.10;;;;;;4927751;29;20446;-73
2021/06/05 07:36:48;;;;;;;4.82;4.28;;;13.30;91.30;;;;;;4928443;29;20195;-72
2021/06/05 07:39:18;;;;;;;5.97;4.45;;;13.20;91.50;;;;;;4926260;29;20032;-72
2021/06/05 07:41:46;;;;;;;6.38;4.05;;;13.00;91.40;;;;;;4927302;29;20390;-73
2021/06/05 07:44:13;;;;;;;7.97;4.68;;;12.90;91.70;;;;;;4927963;29;20043;-72
2021/06/05 07:46:47;;;;;;;6.50;4.78;;;12.90;92.40;;;;;;4925566;29;20039;-72
2021/06/05 07:49:16;;;;;;;7.15;5.43;;;12.80;92.40;;;;;;4926042;29;20040;-71
2021/06/05 07:51:44;;;;;;;9.07;6.55;;;12.70;92.40;;;;;;4929246;29;20039;-71
2021/06/05 07:54:11;;;;;;;9.45;6.45;;;12.60;92.50;;;;;;4925392;29;20023;-72
2021/06/05 07:56:39;;;;;;;9.82;6.55;;;12.50;92.80;;;;;;4925146;29;20471;-72
2021/06/05 07:59:06;;;;;;;8.60;6.45;;;12.50;93.00;;;;;;4925613;29;20103;-72
2021/06/05 08:01:34;;;;;;;8.75;5.95;;;12.40;93.40;;;;;;4923801;29;20055;-72
2021/06/05 08:04:01;;;;;;;7.95;5.07;;;12.40;93.30;;;;;;4926168;29;20031;-74
2021/06/05 08:06:28;;;;;;;6.72;5.22;;;12.30;93.40;;;;;;4929252;29;20020;-72
2021/06/05 08:08:56;;;;;;;9.32;5.15;;;12.20;92.90;;;;;;4927932;29;20572;-72
2021/06/05 08:11:23;;;;;;;10.35;6.68;;;12.20;93.30;;;;;;4928833;29;20043;-73
2021/06/05 08:13:51;;;;;;;9.10;6.60;;;12.20;93.60;;;;;;4926786;29;20098;-73
2021/06/05 08:16:18;;;;;;;9.63;6.25;;;12.20;94.00;;;;;;4924413;29;20190;-72
2021/06/05 08:18:46;;;;;;;7.85;5.78;;;12.10;93.90;;;;;;4927241;29;20056;-73
2021/06/05 08:21:16;;;;;;;10.43;7.35;;;12.10;93.90;;;;;;4925369;29;20106;-72
2021/06/05 08:23:44;;;;;;;12.75;8.57;;;12.10;94.40;;;;;;4923837;29;20104;-72
2021/06/05 08:26:13;;;;;;;26.70;17.60;;;12.00;94.40;;;;;;4908477;29;20063;-73
2021/06/05 08:28:41;;;;;;;74.53;45.03;;;12.00;94.60;;;;;;4926999;29;20040;-72
2021/06/05 08:31:11;;;;;;;29.70;19.85;;;11.90;94.90;;;;;;4928046;29;20024;-72
2021/06/05 08:33:39;;;;;;;20.40;12.63;;;11.90;95.00;;;;;;4922034;29;20546;-72
2021/06/05 08:36:08;;;;;;;19.88;11.57;;;11.80;95.00;;;;;;4929378;29;20043;-72
2021/06/05 08:38:40;;;;;;;19.35;13.77;;;11.70;95.10;;;;;;4924264;29;20598;-72
2021/06/05 08:41:20;;;;;;;20.05;13.00;;;11.70;95.50;;;;;;4926656;29;20038;-71
2021/06/05 08:43:57;;;;;;;23.52;15.77;;;11.60;95.60;;;;;;4924857;29;20059;-71
2021/06/05 08:46:29;;;;;;;31.15;22.33;;;11.50;95.70;;;;;;4923965;29;20525;-72
2021/06/05 08:48:59;;;;;;;54.15;35.95;;;11.40;96.00;;;;;;4924107;29;20055;-73
2021/06/05 08:51:50;;;;;;;41.00;26.38;;;11.40;95.90;;;;;;4923373;29;20106;-74
2021/06/05 08:54:32;;;;;;;32.78;21.98;;;11.40;96.10;;;;;;4923294;29;20040;-74
2021/06/05 08:57:11;;;;;;;32.72;22.10;;;11.30;95.90;;;;;;4925769;29;20461;-71
2021/06/05 08:59:41;;;;;;;26.92;17.15;;;11.20;96.00;;;;;;4923729;29;20511;-72
2021/06/05 09:02:09;;;;;;;22.17;13.85;;;11.20;96.30;;;;;;4925521;29;20434;-71
2021/06/05 09:04:38;;;;;;;29.35;15.45;;;11.10;96.20;;;;;;4923697;29;20090;-73
2021/06/05 09:07:12;;;;;;;25.92;14.32;;;11.00;96.50;;;;;;4925527;29;20028;-72
2021/06/05 09:09:43;;;;;;;18.83;11.30;;;11.00;96.40;;;;;;4925375;29;20490;-72
2021/06/05 09:12:13;;;;;;;17.23;11.48;;;11.10;96.30;;;;;;4925041;29;20051;-72
2021/06/05 09:14:41;;;;;;;21.13;11.40;;;11.10;96.40;;;;;;4924880;29;21565;-72
2021/06/05 09:17:30;;;;;;;20.52;11.80;;;11.10;96.40;;;;;;4925212;29;20562;-72
2021/06/05 09:20:12;;;;;;;19.60;12.40;;;11.00;96.40;;;;;;4923937;29;20107;-73
2021/06/05 09:22:43;;;;;;;22.77;14.68;;;11.00;96.50;;;;;;4924212;29;20036;-73
2021/06/05 09:25:41;;;;;;;21.30;14.32;;;10.90;96.40;;;;;;4924413;29;20042;-73
2021/06/05 09:28:19;;;;;;;23.73;13.82;;;10.80;96.30;;;;;;4922795;29;20024;-72
2021/06/05 09:30:49;;;;;;;16.95;13.45;;;10.80;96.70;;;;;;4929235;29;20551;-73
2021/06/05 09:33:33;;;;;;;22.17;13.45;;;10.70;96.90;;;;;;4924631;29;20408;-72
2021/06/05 09:36:30;;;;;;;20.60;14.15;;;10.60;97.10;;;;;;4922853;29;20156;-72
2021/06/05 09:39:06;;;;;;;41.60;26.38;;;10.50;97.00;;;;;;4928112;29;20073;-72
2021/06/05 09:41:36;;;;;;;37.05;23.38;;;10.30;97.30;;;;;;4926824;29;20028;-72
2021/06/05 09:44:22;;;;;;;34.28;19.00;;;10.20;97.80;;;;;;4924237;29;20062;-72
2021/06/05 09:47:00;;;;;;;31.57;21.37;;;10.20;97.70;;;;;;4927360;29;20487;-73
2021/06/05 09:49:39;;;;;;;41.03;25.35;;;10.20;98.20;;;;;;4926049;29;20028;-73
2021/06/05 09:52:29;;;;;;;38.75;25.25;;;10.20;98.20;;;;;;4923950;29;20038;-72
2021/06/05 09:55:19;;;;;;;41.38;25.33;;;10.20;98.10;;;;;;4926037;29;20040;-72
2021/06/05 09:57:49;;;;;;;33.65;19.45;;;10.20;97.90;;;;;;4914327;29;20465;-73
2021/06/05 10:00:35;;;;;;;27.38;14.80;;;10.10;98.20;;;;;;4919675;29;20075;-73
2021/06/05 10:03:29;;;;;;;22.00;14.00;;;10.10;98.40;;;;;;4925876;29;20050;-72
2021/06/05 10:05:57;;;;;;;18.00;12.15;;;10.10;98.70;;;;;;4925471;29;20118;-74
2021/06/05 10:08:36;;;;;;;25.02;15.25;;;10.10;98.60;;;;;;4924425;29;20110;-72
2021/06/05 10:11:16;;;;;;;23.65;14.57;;;10.10;98.50;;;;;;4926207;29;20082;-74
2021/06/05 10:13:47;;;;;;;30.80;17.20;;;10.10;98.70;;;;;;4925992;29;20518;-72
2021/06/05 10:16:21;;;;;;;30.80;18.05;;;10.00;98.40;;;;;;4926419;29;20075;-74
2021/06/05 10:19:01;;;;;;;27.88;16.85;;;9.90;98.40;;;;;;4928079;29;20505;-72
2021/06/05 10:21:42;;;;;;;38.47;22.30;;;9.90;98.30;;;;;;4925901;29;20099;-73
2021/06/05 10:24:44;;;;;;;32.40;20.70;;;9.80;98.40;;;;;;4930686;29;20024;-72
2021/06/05 10:27:20;;;;;;;29.67;21.20;;;9.70;98.40;;;;;;4928028;29;20046;-74
2021/06/05 10:29:58;;;;;;;27.73;21.25;;;9.50;98.30;;;;;;4928131;29;20034;-71
2021/06/05 10:32:31;;;;;;;25.15;18.77;;;9.40;98.70;;;;;;4926549;29;20040;-72
2021/06/05 10:35:08;;;;;;;21.20;15.70;;;9.40;98.60;;;;;;4927949;29;20040;-73
2021/06/05 10:37:38;;;;;;;23.02;15.85;;;9.40;98.50;;;;;;4928589;29;20050;-72
2021/06/05 10:40:15;;;;;;;24.40;16.25;;;9.30;98.60;;;;;;4924009;29;20397;-72
2021/06/05 10:43:00;;;;;;;25.33;17.05;;;9.30;98.40;;;;;;4924969;29;20043;-74
2021/06/05 10:45:32;;;;;;;19.85;14.52;;;9.30;98.90;;;;;;4927377;29;20039;-73
2021/06/05 10:48:15;;;;;;;21.15;14.02;;;9.30;98.90;;;;;;4926811;29;20019;-73
2021/06/05 10:50:46;;;;;;;19.00;11.45;;;9.30;98.70;;;;;;4927112;29;20087;-71
2021/06/05 10:53:27;;;;;;;18.33;11.15;;;9.20;98.70;;;;;;4925029;29;20034;-72
2021/06/05 10:56:02;;;;;;;16.45;11.15;;;9.20;98.80;;;;;;4925294;29;20044;-73
2021/06/05 10:58:35;;;;;;;18.80;12.27;;;9.20;98.70;;;;;;4928963;29;20031;-73
2021/06/05 11:01:06;;;;;;;16.33;12.20;;;9.10;98.90;;;;;;4926451;29;20059;-72
2021/06/05 11:03:38;;;;;;;20.48;12.10;;;9.00;99.10;;;;;;4928129;29;20028;-72
2021/06/05 11:06:11;;;;;;;18.73;14.30;;;9.00;99.40;;;;;;4921533;29;20225;-72
2021/06/05 11:08:59;;;;;;;23.55;13.75;;;9.00;99.70;;;;;;4926516;29;20024;-73
2021/06/05 11:11:52;;;;;;;18.30;13.45;;;8.90;99.30;;;;;;4927248;29;20118;-73
2021/06/05 11:14:38;;;;;;;18.35;12.45;;;8.90;99.20;;;;;;4920684;29;20038;-75
2021/06/05 11:17:30;;;;;;;20.63;12.83;;;8.80;99.20;;;;;;4917994;29;20600;-73
2021/06/05 11:20:07;;;;;;;23.90;12.70;;;8.80;99.10;;;;;;4921600;29;20031;-73
2021/06/05 11:22:54;;;;;;;21.40;13.15;;;8.80;99.20;;;;;;4924297;29;20030;-72
2021/06/05 11:25:30;;;;;;;26.52;13.48;;;8.70;99.50;;;;;;4926697;29;20378;-72
2021/06/05 11:28:17;;;;;;;17.33;11.93;;;8.70;99.50;;;;;;4920669;29;20028;-73
2021/06/05 11:30:45;;;;;;;18.38;12.15;;;8.60;99.60;;;;;;4927550;29;20485;-72
2021/06/05 11:33:32;;;;;;;18.30;10.90;;;8.50;99.20;;;;;;4926152;29;20475;-74
2021/06/05 11:36:01;;;;;;;14.73;9.85;;;8.50;99.40;;;;;;4926612;29;20227;-73
2021/06/05 11:38:32;;;;;;;17.02;11.68;;;8.40;99.90;;;;;;4922994;29;20028;-73
2021/06/05 11:41:05;;;;;;;16.27;11.63;;;8.50;99.90;;;;;;4926293;29;20055;-72
2021/06/05 11:43:32;;;;;;;23.33;13.88;;;8.50;99.90;;;;;;4927609;29;20024;-73
2021/06/05 11:46:12;;;;;;;26.15;15.23;;;8.30;99.90;;;;;;4926208;29;20039;-72
2021/06/05 11:48:47;;;;;;;26.13;15.00;;;8.30;99.90;;;;;;4925916;29;20028;-73
2021/06/05 11:51:23;;;;;;;26.23;16.80;;;8.20;99.90;;;;;;4922898;29;20031;-72
2021/06/05 11:53:56;;;;;;;25.17;14.70;;;8.20;99.90;;;;;;4927112;29;20027;-73
2021/06/05 11:56:32;;;;;;;18.63;12.27;;;8.10;99.90;;;;;;4926330;29;20044;-72
2021/06/05 11:59:30;;;;;;;17.30;12.30;;;8.10;99.90;;;;;;4925716;29;20088;-73
2021/06/05 12:02:19;;;;;;;22.65;12.27;;;7.90;99.90;;;;;;4925801;29;20036;-73
2021/06/05 12:04:50;;;;;;;19.75;12.38;;;7.80;99.90;;;;;;4923977;29;20021;-73
2021/06/05 12:07:41;;;;;;;22.30;13.10;;;7.80;99.90;;;;;;4925084;29;20032;-73
2021/06/05 12:10:11;;;;;;;21.63;13.68;;;7.70;99.90;;;;;;4924620;29;20039;-72
2021/06/05 12:12:49;;;;;;;22.23;13.77;;;7.80;99.90;;;;;;4925087;29;20743;-73
2021/06/05 12:15:22;;;;;;;20.67;12.50;;;7.80;99.90;;;;;;4923795;29;20383;-72
2021/06/05 12:18:03;;;;;;;17.48;11.82;;;7.70;99.90;;;;;;4930729;29;20115;-73
2021/06/05 12:20:42;;;;;;;21.17;13.73;;;7.70;99.90;;;;;;4929017;29;20055;-74
2021/06/05 12:23:31;;;;;;;18.63;12.63;;;7.70;99.90;;;;;;4927235;29;20375;-73
2021/06/05 12:26:10;;;;;;;18.02;10.50;;;7.70;99.90;;;;;;4922612;29;20099;-73
2021/06/05 12:28:41;;;;;;;15.63;10.30;;;7.80;99.90;;;;;;4933721;29;20478;-74
2021/06/05 12:31:27;;;;;;;17.67;11.15;;;7.70;99.90;;;;;;4929265;29;20039;-74
2021/06/05 12:34:17;;;;;;;;;;;7.70;99.90;;;;;;4916497;29;20149;-73
2021/06/05 12:36:54;;;;;;;18.42;10.00;;;7.70;99.90;;;;;;4919386;29;19926;-73
2021/06/05 12:39:44;;;;;;;14.23;9.80;;;7.70;99.90;;;;;;4926157;29;20019;-73
2021/06/05 12:42:18;;;;;;;13.88;8.43;;;7.80;99.90;;;;;;4931551;29;20075;-73
2021/06/05 12:44:47;;;;;;;9.52;6.93;;;7.80;99.90;;;;;;4925898;29;20372;-72
2021/06/05 12:47:26;;;;;;;15.02;8.35;;;7.80;99.90;;;;;;4927074;29;20505;-73
2021/06/05 12:49:53;;;;;;;8.43;5.93;;;7.80;99.90;;;;;;4928218;29;20035;-73
2021/06/05 12:52:28;;;;;;;8.48;6.10;;;7.80;99.90;;;;;;4929435;29;20383;-71
2021/06/05 12:55:33;;;;;;;10.15;5.97;;;7.90;99.90;;;;;;4924436;29;20130;-72
2021/06/05 12:58:05;;;;;;;6.93;4.68;;;7.90;99.90;;;;;;4932655;29;20466;-70
2021/06/05 13:00:35;;;;;;;8.40;5.43;;;8.00;99.90;;;;;;4930719;29;20128;-73
2021/06/05 13:03:08;;;;;;;6.25;4.30;;;7.90;99.90;;;;;;4927013;29;20364;-71
2021/06/05 13:05:42;;;;;;;8.07;4.88;;;7.90;99.90;;;;;;4931087;29;20091;-72
2021/06/05 13:08:17;;;;;;;14.07;8.48;;;7.90;99.90;;;;;;4928723;29;20027;-71
2021/06/05 13:10:55;;;;;;;13.77;9.43;;;7.90;99.90;;;;;;4925936;29;20088;-73
2021/06/05 13:13:29;;;;;;;13.73;7.70;;;7.90;99.90;;;;;;4933517;29;20028;-72